Terminal Aerodrome Forecast
Issued by NWS Grand Forks, ND

Home | Current Version | Previous Version | Graphics & Text | Print | Product List | Glossary On
Versions: 1 2 3 4 5 6 7 8 9 10 11 12 13
859
FTUS43 KFGF 131720
TAFFAR
TAF
KFAR 131720Z 1318/1418 17015KT P6SM OVC060
      TEMPO 1318/1321 -SN
     FM132300 17012KT P6SM SCT120
     FM140700 19008KT P6SM FEW250
     FM141100 22006KT P6SM FEW250=

USA.gov is the U.S. government's official web portal to all federal, state and local government web resources and services.